Rockport, IL (62370)

5:40 AM CDT on August 03, 2015 (GMT -0500)
N0YWD | | Change Station
CLOSE
Current Station
Personal Weather Station
Location: Louisiana, MO
Elevation: 525 ft
Nearby Weather Stations
Active Advisory: Flood Warning

Elev 525 ft 39.44 °N, 91.06 °W | Updated 2 minutes ago

Partly Cloudy
Partly Cloudy
68.5 °F
Feels Like 68.5 °F
N
0.0
Wind Variable Wind from WNW
Gusts 0.0 mph

Today
High -- | Low -- °F
--% Chance of Precip.
Yesterday
High -- | Low -- °F
Precip. -- in
6:05 AM 8:14 PM
Waning Gibbous, 87% visible
Pressure 29.88 in
Visibility 10.0 miles
Clouds Scattered Clouds 6000 ft
Dew Point 63 °F
Humidity 82%
Rainfall 0.00 in
Snow Depth Not available.
UV 0 out of 12
Pollen 6.90 out of 12
Air Quality Not available.
Flu Activity Not available.
METAR KPPQ 031035Z AUTO 25004KT 10SM SCT060 21/16 A2988 RMK AO2 T02140158

More Conditions Fewer Conditions

Pressure 29.88 in
Visibility 10.0 miles
Clouds Scattered Clouds 6000 ft
Dew Point 63 °F
Humidity 82%
Rainfall 0.00 in
Snow Depth Not available.
UV 0 out of 12
Pollen 6.90 out of 12
Air Quality Not available.
Flu Activity Not available.
METAR KPPQ 031035Z AUTO 25004KT 10SM SCT060 21/16 A2988 RMK AO2 T02140158

More Conditions Fewer Conditions

10-Day Weather Forecast

×

Almanac

Astronomy

Aug. 03, 2015 Rise Set
Actual Time
Civil Twilight
Nautical Twilight
Astronomical Twilight
Moon
Length of Visible Light
Length of Day
Tomorrow will be .
, % of the Moon is Illuminated

Today's Extremes

State Highs State Lows

Community

WunderPhotos

Upload Photos

1,843,610 photos uploaded!

WunderBlogs® & News

Nearby

Air Quality

  Air Quality AQ Index Pollutant
Not available.

Snow Depth

Station Depth Elevation

Earthquake Activity

City Distance Mag. Time & Date
Minimum magnitude displayed is 2.5.

Coastal Water Temperatures

Place Temperature

Stations

Nearby Weather Stations

Station Location Temp. Windchill Dew Point Humidity Wind Precip. Elev Updated Type
                   
Flood Warning
Statement as of 8:30 PM CDT on August 02, 2015

The Flood Warning continues for
the Illinois River at Valley City.
* At 7:30 PM Sunday the stage was 15.8 feet.
* Flood stage is 14.0 feet.
* Minor flooding is occurringt.
* The river will fall below flood stage early Thursday morning.

                   Fld latest 7 a.M. Forecast
location stg obs stg 08/03 08/04 08/05 08/06 08/07

Illinois River
Valley City 14.0 15.84 15.8 15.1 14.4 13.8 13.2




Lat... Lon 3977 9067 3977 9053 3952 9052 3952 9064







830 PM CDT sun Aug 2 2015

The Flood Warning continues for
the Illinois River at Meredosia.
* At 7:30 PM Sunday the stage was 17.8 feet.
* Flood stage is 17.0 feet.
* Minor flooding is occurring.
* The river will fall below flood stage by tomorrow late evening.

                   Fld latest 7 a.M. Forecast
location stg obs stg 08/03 08/04 08/05 08/06 08/07

Illinois River
Meredosia 17.0 17.81 17.4 16.7 16.1 15.3 14.6




Lat... Lon 3988 9063 3988 9051 3977 9053 3977 9067